Airfield :
LOGIN :

Register | Disclaimer

   EN    FR    IT 

 










Legend :    VFR   Marginal VFR   IFR   Intensive IFR   Very Intensive IFR
Visi :
Ceiling :
>= 8 km
>= 3000ft
5 to 8 km
1000 to 3000 ft
1500m to 5 km
500 to 1000 ft
800 to 1500m
200 to 500 ft
< 800m
< 200 ft
Symbols :   Thunderstorms  Fog  Heavy snow  Heavy precipitations  Wind > 20 kt
SIGMETs :     Misc.  Thunderstorms  Icing  Turbulence  Mountain Waves  Volcanic Ashes






- Airport Elevation : 308 ft
- IATA code : MHG


EDFM - Mannheim-City

CURRENT METAR :
  • 181350Z 36006KT 310V030 CAVOK 11/03 Q1018

EXPIRED METARs :
  • 181320Z 34007KT 310V020 9999 FEW049 11/02 Q1018
  • 181250Z 01005KT 290V070 9999 FEW036 11/04 Q1018
  • 181220Z 34007KT 300V040 9999 FEW046 10/03 Q1018
  • 181150Z 01003KT 300V080 9999 FEW028 BKN042 BKN049 09/04 Q1018
  • 181120Z 04010KT 010V070 9999 FEW016 BKN024 OVC027 07/05 Q1018
  • 181050Z 36008KT 320V050 9999 -RA FEW015 BKN027 08/03 Q1018
  • 181020Z 31007KT 9999 BKN025 09/03 Q1017
  • 180950Z 36007KT 320V050 9999 FEW021 SCT027 08/03 Q1017

TAF TAF EDFM
Valid from the 18 at 12:00 until the 18 at 21:00 UTC


181100Z 1812/1821 34006KT 9999 SCT030
TEMPO 1812/1816 SHRA BKN020CB
BECMG 1819/1821 24005KT



MET'MAP, your aeronautical weather chart ! - Copyright ORBIFLY December 2007 - Disclaimer

ORBIFLY MET'MAP TEAM :

Programming & Development : Alexandra Zaïnal
Original concept : Baudouin d'Aumeries
Technical & hardware support : Manuel Goepfert
Assistance : Marc-Olivier Méhu




SOURCES & CREDITS :

   NOAA